• Join FlightAware (Why Join?)
  • Login
  • US Flag 
08:23PM EST


 

Airport Tracker/Info


-or-


 

Live Flight TrackerFlight Track Log ✈ N118RT ✈ 24-Apr-2013 ✈ KELP - MMTC / TRC

Flight Track Log - Related Links

Times and Time Zones

All times are in EDT time to prevent confusion due to time zone crossing. See the N118RT flight status page for this flight to view local times or setup timezone preferences in your user account.

Time Position Orientation Groundspeed Altitude Reporting Facility
EDT Latitude Longitude Course Direction KTS MPH feet Rate Location/Type
08:05PM 31.7981 -106.4039 214° Southwest 209 241 4,500  Level Albuquerque Center
08:06PM 31.7778 -106.4200 214° Southwest 219 252 5,500 1,620 Climbing Albuquerque Center
08:07PM 31.7322 -106.3689 136° Southeast 242 278 7,100 2,040 Climbing Albuquerque Center
08:08PM 31.6892 -106.3050 128° Southeast 250 288 9,800 2,460 Climbing Albuquerque Center
08:09PM 31.6411 -106.2397 131° Southeast 265 305 12,200 2,280 Climbing Albuquerque Center
08:10PM 31.5908 -106.1733 132° Southeast 272 313 14,500 2,040 Climbing Albuquerque Center
08:11PM 31.5369 -106.1028 132° Southeast 288 331 16,500 2,100 Climbing Albuquerque Center
08:12PM 31.4672 -106.0114 132° Southeast 313 360 18,900 2,220 Climbing Albuquerque Center
08:13PM 31.4075 -105.9347 132° Southeast 318 366 21,100 2,040 Climbing Albuquerque Center
08:14PM 31.3489 -105.8583 132° Southeast 317 365 23,100 1,920 Climbing Albuquerque Center
08:15PM 31.2908 -105.7833 132° Southeast 312 359 25,100 1,740 Climbing Albuquerque Center
08:16PM 31.2331 -105.7100 133° Southeast 309 356 26,800 1,500 Climbing Albuquerque Center
08:17PM 31.1747 -105.6331 132° Southeast 316 364 28,200 1,560 Climbing Albuquerque Center
08:18PM 31.1025 -105.5397 132° Southeast 321 369 30,100 1,560 Climbing Albuquerque Center
08:19PM 31.0425 -105.4625 132° Southeast 321 369 31,500 1,260 Climbing Albuquerque Center
08:20PM 30.9703 -105.4150 151° Southeast 315 362 32,700 1,080 Climbing Albuquerque Center
08:21PM 30.8908 -105.3867 163° South 305 351 33,800 960 Climbing Albuquerque Center
08:22PM 30.8117 -105.3575 162° South 302 348 34,800 780 Climbing Albuquerque Center
08:23PM 30.7300 -105.3256 161° South 308 354 35,500 780 Climbing Albuquerque Center
08:24PM 30.6303 -105.2875 162° South 315 362 36,400 840 Climbing Albuquerque Center
08:26PM 30.5369 -105.3230 198° South  Level FlightAware Approximate
08:33PM 29.9541 -105.4000 180° South  Level FlightAware Approximate
08:34PM 29.8711 -105.4039 183° South  Level FlightAware Approximate
08:35PM 29.7882 -105.4091 183° South  Level FlightAware Approximate
08:36PM 29.7053 -105.4143 183° South  Level FlightAware Approximate
08:37PM 29.6223 -105.4172 181° South  Level FlightAware Approximate
08:38PM 29.5393 -105.4181 181° South  Level FlightAware Approximate
08:39PM 29.4562 -105.4191 181° South  Level FlightAware Approximate
08:40PM 29.3732 -105.4200 181° South  Level FlightAware Approximate
08:41PM 29.2901 -105.4210 181° South  Level FlightAware Approximate
08:42PM 29.2071 -105.4219 181° South  Level FlightAware Approximate
08:43PM 29.1241 -105.4229 181° South  Level FlightAware Approximate
08:44PM 29.0410 -105.4238 181° South  Level FlightAware Approximate
08:45PM 28.9580 -105.4248 181° South  Level FlightAware Approximate
08:46PM 28.8749 -105.4257 181° South  Level FlightAware Approximate
08:47PM 28.7919 -105.4267 181° South  Level FlightAware Approximate
08:48PM 28.7089 -105.4276 181° South  Level FlightAware Approximate
08:49PM 28.6258 -105.4285 181° South  Level FlightAware Approximate
08:50PM 28.5428 -105.4295 181° South  Level FlightAware Approximate
08:51PM 28.4597 -105.4304 181° South  Level FlightAware Approximate
08:52PM 28.3767 -105.4314 181° South  Level FlightAware Approximate
08:53PM 28.2937 -105.4323 181° South  Level FlightAware Approximate
08:54PM 28.2106 -105.4332 181° South  Level FlightAware Approximate
08:55PM 28.1411 -105.3855 144° Southeast  Level FlightAware Approximate
08:56PM 28.0735 -105.3308 144° Southeast  Level FlightAware Approximate
08:57PM 28.0059 -105.2762 144° Southeast  Level FlightAware Approximate
08:58PM 27.9382 -105.2216 145° Southeast  Level FlightAware Approximate
08:59PM 27.8706 -105.1671 145° Southeast  Level FlightAware Approximate
09:00PM 27.8029 -105.1127 145° Southeast  Level FlightAware Approximate
09:01PM 27.7352 -105.0583 145° Southeast  Level FlightAware Approximate
09:02PM 27.6675 -105.0040 145° Southeast  Level FlightAware Approximate
09:03PM 27.5998 -104.9497 145° Southeast  Level FlightAware Approximate
09:04PM 27.5321 -104.8955 145° Southeast  Level FlightAware Approximate
09:05PM 27.4643 -104.8414 145° Southeast  Level FlightAware Approximate
09:06PM 27.3956 -104.7888 147° Southeast  Level FlightAware Approximate
09:07PM 27.3262 -104.7375 147° Southeast  Level FlightAware Approximate
09:08PM 27.2567 -104.6863 147° Southeast  Level FlightAware Approximate
09:09PM 27.1872 -104.6352 147° Southeast  Level FlightAware Approximate
09:10PM 27.1177 -104.5841 147° Southeast  Level FlightAware Approximate
09:11PM 27.0487 -104.5323 145° Southeast  Level FlightAware Approximate
09:12PM 26.9807 -104.4788 145° Southeast  Level FlightAware Approximate
09:13PM 26.9127 -104.4253 145° Southeast  Level FlightAware Approximate
09:14PM 26.8446 -104.3719 145° Southeast  Level FlightAware Approximate
09:15PM 26.7766 -104.3185 145° Southeast  Level FlightAware Approximate
09:16PM 26.7087 -104.2650 145° Southeast  Level FlightAware Approximate
09:17PM 26.6407 -104.2117 145° Southeast  Level FlightAware Approximate
09:18PM 26.5725 -104.1586 146° Southeast  Level FlightAware Approximate
09:19PM 26.5033 -104.1073 146° Southeast  Level FlightAware Approximate
09:20PM 26.4341 -104.0561 146° Southeast  Level FlightAware Approximate
09:21PM 26.3648 -104.0049 146° Southeast  Level FlightAware Approximate
09:22PM 26.2956 -103.9538 147° Southeast  Level FlightAware Approximate
09:23PM 26.2263 -103.9027 147° Southeast  Level FlightAware Approximate
09:24PM 26.1573 -103.8513 146° Southeast  Level FlightAware Approximate
09:25PM 26.0884 -103.7996 146° Southeast  Level FlightAware Approximate
09:26PM 26.0191 -103.7487 147° Southeast  Level FlightAware Approximate
09:27PM 25.9496 -103.6981 147° Southeast  Level FlightAware Approximate
09:28PM 25.8803 -103.6473 142° Southeast  Level FlightAware Approximate
09:29PM 25.8150 -103.5902 142° Southeast  Level FlightAware Approximate
09:30PM 25.7498 -103.5332 149° Southeast  Level FlightAware Approximate
09:31PM 25.6812 -103.4817 146° Southeast  Level FlightAware Approximate
09:32PM 25.6123 -103.4304 149° Southeast  Level FlightAware Approximate
09:33PM 25.5667 -103.4167 270° West  Level FlightAware Approximate
09:34PM 25.5683 -103.4106 270° West  Level Estimated
09:35PM 25.5667 -103.4167 270° West  Level FlightAware Approximate
09:36PM 25.5683 -103.4106 270° West  Level Estimated
09:37PM 25.5667 -103.4167 270° West  Level FlightAware Approximate
09:38PM 25.5683 -103.4106 270° West  Level Estimated
09:39PM 25.5667 -103.4167 270° West  Level FlightAware Approximate
09:40PM 25.5683 -103.4106 270° West  Level Estimated
09:41PM 25.5667 -103.4167 270° West  Level FlightAware Approximate
09:42PM 25.5683 -103.4106 270° West  Level Estimated
09:43PM 25.5667 -103.4167 270° West  Level FlightAware Approximate
09:44PM 25.5683 -103.4106 270° West  Level Estimated
09:45PM 25.5667 -103.4167 270° West  Level FlightAware Approximate
09:46PM 25.5683 -103.4106 270° West  Level Estimated
09:47PM 25.5667 -103.4167 270° West  Level FlightAware Approximate